sensor_id;sensor_type;location;lat;lon;timestamp;P1;durP1;ratioP1;P2;durP2;ratioP2
17038;SDS011;8636;55.750;13.202;2023-09-19T00:02:09;9.77;;;6.20;;
17038;SDS011;8636;55.750;13.202;2023-09-19T00:04:43;11.73;;;6.63;;
17038;SDS011;8636;55.750;13.202;2023-09-19T00:07:18;10.88;;;6.30;;
17038;SDS011;8636;55.750;13.202;2023-09-19T00:09:48;8.85;;;6.15;;
17038;SDS011;8636;55.750;13.202;2023-09-19T00:12:17;10.25;;;5.95;;
17038;SDS011;8636;55.750;13.202;2023-09-19T00:14:52;7.65;;;6.00;;
17038;SDS011;8636;55.750;13.202;2023-09-19T00:17:20;11.20;;;7.00;;
17038;SDS011;8636;55.750;13.202;2023-09-19T00:19:48;7.93;;;5.63;;
17038;SDS011;8636;55.750;13.202;2023-09-19T00:22:25;9.27;;;5.95;;
17038;SDS011;8636;55.750;13.202;2023-09-19T00:24:53;7.10;;;5.45;;
17038;SDS011;8636;55.750;13.202;2023-09-19T00:27:22;10.05;;;5.72;;
17038;SDS011;8636;55.750;13.202;2023-09-19T00:29:57;10.30;;;5.50;;
17038;SDS011;8636;55.750;13.202;2023-09-19T00:32:26;8.02;;;5.43;;
17038;SDS011;8636;55.750;13.202;2023-09-19T00:34:57;9.38;;;5.35;;
17038;SDS011;8636;55.750;13.202;2023-09-19T00:37:31;9.18;;;5.43;;
17038;SDS011;8636;55.750;13.202;2023-09-19T00:39:59;7.47;;;5.10;;
17038;SDS011;8636;55.750;13.202;2023-09-19T00:42:29;12.07;;;5.65;;
17038;SDS011;8636;55.750;13.202;2023-09-19T00:45:04;9.85;;;5.85;;
17038;SDS011;8636;55.750;13.202;2023-09-19T00:47:33;7.85;;;5.45;;
17038;SDS011;8636;55.750;13.202;2023-09-19T00:50:02;8.52;;;5.70;;
17038;SDS011;8636;55.750;13.202;2023-09-19T00:52:41;9.73;;;5.45;;
17038;SDS011;8636;55.750;13.202;2023-09-19T00:55:10;8.73;;;6.20;;
17038;SDS011;8636;55.750;13.202;2023-09-19T00:57:39;11.43;;;6.10;;
17038;SDS011;8636;55.750;13.202;2023-09-19T01:00:21;9.18;;;5.47;;
17038;SDS011;8636;55.750;13.202;2023-09-19T01:02:50;8.32;;;5.07;;
17038;SDS011;8636;55.750;13.202;2023-09-19T01:05:24;7.88;;;5.13;;
17038;SDS011;8636;55.750;13.202;2023-09-19T01:07:53;8.50;;;5.47;;
17038;SDS011;8636;55.750;13.202;2023-09-19T01:10:21;14.05;;;5.47;;
17038;SDS011;8636;55.750;13.202;2023-09-19T01:13:00;10.27;;;5.70;;
17038;SDS011;8636;55.750;13.202;2023-09-19T01:15:39;10.27;;;5.35;;
17038;SDS011;8636;55.750;13.202;2023-09-19T01:18:27;8.93;;;4.85;;
17038;SDS011;8636;55.750;13.202;2023-09-19T01:21:05;8.95;;;5.32;;
17038;SDS011;8636;55.750;13.202;2023-09-19T01:23:52;8.20;;;4.45;;
17038;SDS011;8636;55.750;13.202;2023-09-19T01:26:54;11.23;;;5.15;;
17038;SDS011;8636;55.750;13.202;2023-09-19T01:29:42;7.45;;;4.90;;
17038;SDS011;8636;55.750;13.202;2023-09-19T01:32:15;9.23;;;4.78;;
17038;SDS011;8636;55.750;13.202;2023-09-19T01:34:55;7.68;;;4.60;;
17038;SDS011;8636;55.750;13.202;2023-09-19T01:37:25;6.80;;;4.60;;
17038;SDS011;8636;55.750;13.202;2023-09-19T01:39:55;7.50;;;4.30;;
17038;SDS011;8636;55.750;13.202;2023-09-19T01:42:43;11.68;;;4.68;;
17038;SDS011;8636;55.750;13.202;2023-09-19T01:45:18;6.65;;;4.22;;
17038;SDS011;8636;55.750;13.202;2023-09-19T01:48:01;8.18;;;4.60;;
17038;SDS011;8636;55.750;13.202;2023-09-19T01:50:42;7.03;;;4.38;;
17038;SDS011;8636;55.750;13.202;2023-09-19T01:53:23;8.68;;;4.28;;
17038;SDS011;8636;55.750;13.202;2023-09-19T01:55:54;6.63;;;4.10;;
17038;SDS011;8636;55.750;13.202;2023-09-19T01:58:32;7.78;;;4.55;;
17038;SDS011;8636;55.750;13.202;2023-09-19T02:01:15;10.82;;;4.40;;
17038;SDS011;8636;55.750;13.202;2023-09-19T02:04:01;6.75;;;4.30;;
17038;SDS011;8636;55.750;13.202;2023-09-19T02:06:29;6.18;;;3.83;;
17038;SDS011;8636;55.750;13.202;2023-09-19T02:08:57;6.45;;;4.03;;
17038;SDS011;8636;55.750;13.202;2023-09-19T02:11:33;4.65;;;3.53;;
17038;SDS011;8636;55.750;13.202;2023-09-19T02:14:01;9.68;;;3.50;;
17038;SDS011;8636;55.750;13.202;2023-09-19T02:16:30;6.05;;;3.78;;
17038;SDS011;8636;55.750;13.202;2023-09-19T02:19:07;5.90;;;3.05;;
17038;SDS011;8636;55.750;13.202;2023-09-19T02:21:35;5.90;;;2.90;;
17038;SDS011;8636;55.750;13.202;2023-09-19T02:24:04;5.70;;;3.03;;
17038;SDS011;8636;55.750;13.202;2023-09-19T02:26:41;5.22;;;2.70;;
17038;SDS011;8636;55.750;13.202;2023-09-19T02:29:10;6.72;;;2.50;;
17038;SDS011;8636;55.750;13.202;2023-09-19T02:31:39;6.30;;;3.13;;
17038;SDS011;8636;55.750;13.202;2023-09-19T02:34:15;5.95;;;2.47;;
17038;SDS011;8636;55.750;13.202;2023-09-19T02:36:43;3.42;;;2.03;;
17038;SDS011;8636;55.750;13.202;2023-09-19T02:39:12;5.03;;;2.10;;
17038;SDS011;8636;55.750;13.202;2023-09-19T02:41:46;4.10;;;1.60;;
17038;SDS011;8636;55.750;13.202;2023-09-19T02:44:14;3.33;;;1.50;;
17038;SDS011;8636;55.750;13.202;2023-09-19T02:46:42;3.55;;;1.20;;
17038;SDS011;8636;55.750;13.202;2023-09-19T02:49:19;2.72;;;1.58;;
17038;SDS011;8636;55.750;13.202;2023-09-19T02:51:50;2.72;;;1.60;;
17038;SDS011;8636;55.750;13.202;2023-09-19T02:54:24;3.72;;;1.40;;
17038;SDS011;8636;55.750;13.202;2023-09-19T02:56:52;2.97;;;1.40;;
17038;SDS011;8636;55.750;13.202;2023-09-19T02:59:20;2.15;;;1.40;;
17038;SDS011;8636;55.750;13.202;2023-09-19T03:02:02;3.58;;;1.50;;
17038;SDS011;8636;55.750;13.202;2023-09-19T03:04:33;2.60;;;1.27;;
17038;SDS011;8636;55.750;13.202;2023-09-19T03:07:07;5.38;;;1.83;;
17038;SDS011;8636;55.750;13.202;2023-09-19T03:09:37;4.72;;;1.63;;
17038;SDS011;8636;55.750;13.202;2023-09-19T03:12:05;4.95;;;1.90;;
17038;SDS011;8636;55.750;13.202;2023-09-19T03:14:40;3.92;;;1.52;;
17038;SDS011;8636;55.750;13.202;2023-09-19T03:17:08;1.80;;;1.40;;
17038;SDS011;8636;55.750;13.202;2023-09-19T03:19:38;2.45;;;1.52;;
17038;SDS011;8636;55.750;13.202;2023-09-19T03:22:12;4.72;;;1.50;;
17038;SDS011;8636;55.750;13.202;2023-09-19T03:24:40;3.63;;;1.55;;
17038;SDS011;8636;55.750;13.202;2023-09-19T03:27:09;3.08;;;1.58;;
17038;SDS011;8636;55.750;13.202;2023-09-19T03:29:58;2.92;;;1.88;;
17038;SDS011;8636;55.750;13.202;2023-09-19T03:32:26;4.78;;;1.95;;
17038;SDS011;8636;55.750;13.202;2023-09-19T03:35:02;4.00;;;2.30;;
17038;SDS011;8636;55.750;13.202;2023-09-19T03:37:32;4.18;;;1.92;;
17038;SDS011;8636;55.750;13.202;2023-09-19T03:40:00;5.75;;;2.45;;
17038;SDS011;8636;55.750;13.202;2023-09-19T03:42:38;4.35;;;2.20;;
17038;SDS011;8636;55.750;13.202;2023-09-19T03:45:06;5.88;;;2.15;;
17038;SDS011;8636;55.750;13.202;2023-09-19T03:47:44;6.53;;;2.55;;
17038;SDS011;8636;55.750;13.202;2023-09-19T03:50:15;6.13;;;2.03;;
17038;SDS011;8636;55.750;13.202;2023-09-19T03:52:44;7.18;;;2.38;;
17038;SDS011;8636;55.750;13.202;2023-09-19T03:55:18;4.07;;;2.10;;
17038;SDS011;8636;55.750;13.202;2023-09-19T03:57:47;5.47;;;2.08;;
17038;SDS011;8636;55.750;13.202;2023-09-19T04:00:16;3.58;;;2.35;;
17038;SDS011;8636;55.750;13.202;2023-09-19T04:02:53;7.40;;;2.75;;
17038;SDS011;8636;55.750;13.202;2023-09-19T04:05:33;4.65;;;2.03;;
17038;SDS011;8636;55.750;13.202;2023-09-19T04:08:07;4.95;;;1.85;;
17038;SDS011;8636;55.750;13.202;2023-09-19T04:10:35;4.90;;;2.15;;
17038;SDS011;8636;55.750;13.202;2023-09-19T04:13:03;5.25;;;2.22;;
17038;SDS011;8636;55.750;13.202;2023-09-19T04:15:40;5.47;;;2.22;;
17038;SDS011;8636;55.750;13.202;2023-09-19T04:18:08;7.88;;;2.13;;
17038;SDS011;8636;55.750;13.202;2023-09-19T04:20:38;3.33;;;1.90;;
17038;SDS011;8636;55.750;13.202;2023-09-19T04:23:12;4.45;;;1.85;;
17038;SDS011;8636;55.750;13.202;2023-09-19T04:25:41;6.82;;;2.60;;
17038;SDS011;8636;55.750;13.202;2023-09-19T04:28:09;2.17;;;1.80;;
17038;SDS011;8636;55.750;13.202;2023-09-19T04:30:43;3.30;;;1.80;;
17038;SDS011;8636;55.750;13.202;2023-09-19T04:33:11;4.30;;;2.00;;
17038;SDS011;8636;55.750;13.202;2023-09-19T04:35:42;5.35;;;1.92;;
17038;SDS011;8636;55.750;13.202;2023-09-19T04:38:17;4.88;;;2.13;;
17038;SDS011;8636;55.750;13.202;2023-09-19T04:40:45;7.43;;;1.88;;
17038;SDS011;8636;55.750;13.202;2023-09-19T04:43:13;4.53;;;1.95;;
17038;SDS011;8636;55.750;13.202;2023-09-19T04:45:47;4.13;;;1.80;;
17038;SDS011;8636;55.750;13.202;2023-09-19T04:48:17;2.97;;;1.80;;
17038;SDS011;8636;55.750;13.202;2023-09-19T04:50:46;5.70;;;2.35;;
17038;SDS011;8636;55.750;13.202;2023-09-19T04:53:22;5.90;;;2.08;;
17038;SDS011;8636;55.750;13.202;2023-09-19T04:55:51;4.20;;;1.83;;
17038;SDS011;8636;55.750;13.202;2023-09-19T04:58:22;4.22;;;2.10;;
17038;SDS011;8636;55.750;13.202;2023-09-19T05:01:03;6.95;;;2.10;;
17038;SDS011;8636;55.750;13.202;2023-09-19T05:03:39;6.78;;;2.13;;
17038;SDS011;8636;55.750;13.202;2023-09-19T05:06:15;6.90;;;2.67;;
17038;SDS011;8636;55.750;13.202;2023-09-19T05:08:42;5.68;;;1.92;;
17038;SDS011;8636;55.750;13.202;2023-09-19T05:11:10;2.80;;;2.05;;
17038;SDS011;8636;55.750;13.202;2023-09-19T05:13:44;4.93;;;2.05;;
17038;SDS011;8636;55.750;13.202;2023-09-19T05:16:12;4.85;;;2.05;;
17038;SDS011;8636;55.750;13.202;2023-09-19T05:18:41;8.05;;;2.38;;
17038;SDS011;8636;55.750;13.202;2023-09-19T05:21:17;6.13;;;2.00;;
17038;SDS011;8636;55.750;13.202;2023-09-19T05:23:44;6.32;;;2.13;;
17038;SDS011;8636;55.750;13.202;2023-09-19T05:26:13;6.70;;;2.15;;
17038;SDS011;8636;55.750;13.202;2023-09-19T05:28:49;6.07;;;2.72;;
17038;SDS011;8636;55.750;13.202;2023-09-19T05:31:19;11.15;;;2.22;;
17038;SDS011;8636;55.750;13.202;2023-09-19T05:33:47;9.60;;;1.90;;
17038;SDS011;8636;55.750;13.202;2023-09-19T05:36:24;5.88;;;1.60;;
17038;SDS011;8636;55.750;13.202;2023-09-19T05:38:51;7.20;;;2.05;;
17038;SDS011;8636;55.750;13.202;2023-09-19T05:41:20;7.88;;;2.00;;
17038;SDS011;8636;55.750;13.202;2023-09-19T05:43:56;7.50;;;2.05;;
17038;SDS011;8636;55.750;13.202;2023-09-19T05:46:29;8.27;;;1.98;;
17038;SDS011;8636;55.750;13.202;2023-09-19T05:49:03;11.77;;;3.08;;
17038;SDS011;8636;55.750;13.202;2023-09-19T05:51:33;6.85;;;2.42;;
17038;SDS011;8636;55.750;13.202;2023-09-19T05:54:01;6.57;;;2.08;;
17038;SDS011;8636;55.750;13.202;2023-09-19T05:56:37;6.72;;;1.90;;
17038;SDS011;8636;55.750;13.202;2023-09-19T05:59:05;6.72;;;1.88;;
17038;SDS011;8636;55.750;13.202;2023-09-19T06:01:33;8.98;;;1.90;;
17038;SDS011;8636;55.750;13.202;2023-09-19T06:04:09;7.55;;;2.35;;
17038;SDS011;8636;55.750;13.202;2023-09-19T06:06:38;8.98;;;2.60;;
17038;SDS011;8636;55.750;13.202;2023-09-19T06:09:06;7.15;;;1.88;;
17038;SDS011;8636;55.750;13.202;2023-09-19T06:11:41;9.60;;;2.35;;
17038;SDS011;8636;55.750;13.202;2023-09-19T06:14:10;4.43;;;1.70;;
17038;SDS011;8636;55.750;13.202;2023-09-19T06:16:38;8.30;;;1.88;;
17038;SDS011;8636;55.750;13.202;2023-09-19T06:19:13;10.90;;;2.58;;
17038;SDS011;8636;55.750;13.202;2023-09-19T06:21:43;8.05;;;1.98;;
17038;SDS011;8636;55.750;13.202;2023-09-19T06:24:11;8.70;;;2.33;;
17038;SDS011;8636;55.750;13.202;2023-09-19T06:26:45;7.13;;;2.05;;
17038;SDS011;8636;55.750;13.202;2023-09-19T06:29:13;7.95;;;1.90;;
17038;SDS011;8636;55.750;13.202;2023-09-19T06:31:42;5.32;;;2.03;;
17038;SDS011;8636;55.750;13.202;2023-09-19T06:34:18;10.70;;;2.42;;
17038;SDS011;8636;55.750;13.202;2023-09-19T06:36:47;10.40;;;2.38;;
17038;SDS011;8636;55.750;13.202;2023-09-19T06:39:15;8.98;;;2.25;;
17038;SDS011;8636;55.750;13.202;2023-09-19T06:41:49;5.00;;;2.00;;
17038;SDS011;8636;55.750;13.202;2023-09-19T06:44:19;7.30;;;1.98;;
17038;SDS011;8636;55.750;13.202;2023-09-19T06:46:48;8.95;;;2.20;;
17038;SDS011;8636;55.750;13.202;2023-09-19T06:49:24;6.10;;;1.95;;
17038;SDS011;8636;55.750;13.202;2023-09-19T06:51:55;4.95;;;1.70;;
17038;SDS011;8636;55.750;13.202;2023-09-19T06:54:31;4.40;;;1.73;;
17038;SDS011;8636;55.750;13.202;2023-09-19T06:57:00;5.40;;;2.47;;
17038;SDS011;8636;55.750;13.202;2023-09-19T06:59:28;6.00;;;1.58;;
17038;SDS011;8636;55.750;13.202;2023-09-19T07:02:09;5.38;;;1.75;;
17038;SDS011;8636;55.750;13.202;2023-09-19T07:04:37;4.30;;;1.58;;
17038;SDS011;8636;55.750;13.202;2023-09-19T07:07:13;5.05;;;1.70;;
17038;SDS011;8636;55.750;13.202;2023-09-19T07:09:41;6.68;;;1.58;;
17038;SDS011;8636;55.750;13.202;2023-09-19T07:12:09;7.47;;;1.90;;
17038;SDS011;8636;55.750;13.202;2023-09-19T07:14:45;6.10;;;1.50;;
17038;SDS011;8636;55.750;13.202;2023-09-19T07:17:13;7.28;;;1.65;;
17038;SDS011;8636;55.750;13.202;2023-09-19T07:19:44;8.88;;;1.42;;
17038;SDS011;8636;55.750;13.202;2023-09-19T07:22:20;7.45;;;1.63;;
17038;SDS011;8636;55.750;13.202;2023-09-19T07:24:50;6.50;;;1.77;;
17038;SDS011;8636;55.750;13.202;2023-09-19T07:27:18;5.45;;;1.85;;
17038;SDS011;8636;55.750;13.202;2023-09-19T07:29:52;6.88;;;1.90;;
17038;SDS011;8636;55.750;13.202;2023-09-19T07:32:20;8.77;;;2.30;;
17038;SDS011;8636;55.750;13.202;2023-09-19T07:34:50;7.38;;;2.60;;
17038;SDS011;8636;55.750;13.202;2023-09-19T07:37:26;11.15;;;2.58;;
17038;SDS011;8636;55.750;13.202;2023-09-19T07:39:54;7.00;;;2.28;;
17038;SDS011;8636;55.750;13.202;2023-09-19T07:42:22;8.05;;;2.17;;
17038;SDS011;8636;55.750;13.202;2023-09-19T07:44:56;7.03;;;2.28;;
17038;SDS011;8636;55.750;13.202;2023-09-19T07:47:25;9.93;;;2.30;;
17038;SDS011;8636;55.750;13.202;2023-09-19T07:49:53;5.80;;;1.92;;
17038;SDS011;8636;55.750;13.202;2023-09-19T07:52:30;9.38;;;2.30;;
17038;SDS011;8636;55.750;13.202;2023-09-19T07:54:59;9.85;;;2.42;;
17038;SDS011;8636;55.750;13.202;2023-09-19T07:57:39;9.98;;;2.60;;
17038;SDS011;8636;55.750;13.202;2023-09-19T08:00:09;15.02;;;2.97;;
17038;SDS011;8636;55.750;13.202;2023-09-19T08:02:38;6.93;;;2.15;;
17038;SDS011;8636;55.750;13.202;2023-09-19T08:05:23;13.50;;;2.08;;
17038;SDS011;8636;55.750;13.202;2023-09-19T08:08:01;10.77;;;2.33;;
17038;SDS011;8636;55.750;13.202;2023-09-19T08:10:35;9.23;;;2.45;;
17038;SDS011;8636;55.750;13.202;2023-09-19T08:13:06;9.50;;;2.50;;
17038;SDS011;8636;55.750;13.202;2023-09-19T08:15:44;11.77;;;2.88;;
17038;SDS011;8636;55.750;13.202;2023-09-19T08:18:12;11.70;;;2.45;;
17038;SDS011;8636;55.750;13.202;2023-09-19T08:20:42;8.45;;;2.20;;
17038;SDS011;8636;55.750;13.202;2023-09-19T08:23:20;13.48;;;2.50;;
17038;SDS011;8636;55.750;13.202;2023-09-19T08:25:48;8.07;;;2.28;;
17038;SDS011;8636;55.750;13.202;2023-09-19T08:28:16;10.70;;;2.40;;
17038;SDS011;8636;55.750;13.202;2023-09-19T08:31:00;8.18;;;2.60;;
17038;SDS011;8636;55.750;13.202;2023-09-19T08:33:31;8.77;;;2.70;;
17038;SDS011;8636;55.750;13.202;2023-09-19T08:36:06;9.73;;;2.17;;
17038;SDS011;8636;55.750;13.202;2023-09-19T08:38:36;7.50;;;2.35;;
17038;SDS011;8636;55.750;13.202;2023-09-19T08:41:05;7.75;;;2.38;;
17038;SDS011;8636;55.750;13.202;2023-09-19T08:43:41;6.18;;;2.15;;
17038;SDS011;8636;55.750;13.202;2023-09-19T08:46:10;6.80;;;1.90;;
17038;SDS011;8636;55.750;13.202;2023-09-19T08:48:50;8.07;;;2.33;;
17038;SDS011;8636;55.750;13.202;2023-09-19T08:51:30;9.40;;;2.53;;
17038;SDS011;8636;55.750;13.202;2023-09-19T08:54:31;8.90;;;2.20;;
17038;SDS011;8636;55.750;13.202;2023-09-19T08:57:17;5.72;;;2.33;;
17038;SDS011;8636;55.750;13.202;2023-09-19T08:59:54;8.10;;;1.88;;
17038;SDS011;8636;55.750;13.202;2023-09-19T09:02:31;6.70;;;1.92;;
17038;SDS011;8636;55.750;13.202;2023-09-19T09:05:13;6.60;;;1.80;;
17038;SDS011;8636;55.750;13.202;2023-09-19T09:07:49;12.07;;;2.60;;
17038;SDS011;8636;55.750;13.202;2023-09-19T09:10:26;8.30;;;2.45;;
17038;SDS011;8636;55.750;13.202;2023-09-19T09:12:54;7.95;;;1.90;;
17038;SDS011;8636;55.750;13.202;2023-09-19T09:15:22;9.05;;;2.30;;
17038;SDS011;8636;55.750;13.202;2023-09-19T09:17:57;7.18;;;1.90;;
17038;SDS011;8636;55.750;13.202;2023-09-19T09:20:26;7.95;;;2.08;;
17038;SDS011;8636;55.750;13.202;2023-09-19T09:22:54;6.93;;;2.42;;
17038;SDS011;8636;55.750;13.202;2023-09-19T09:25:50;9.88;;;2.20;;
17038;SDS011;8636;55.750;13.202;2023-09-19T09:28:25;5.95;;;1.73;;
17038;SDS011;8636;55.750;13.202;2023-09-19T09:31:01;5.13;;;1.33;;
17038;SDS011;8636;55.750;13.202;2023-09-19T09:33:34;6.55;;;1.40;;
17038;SDS011;8636;55.750;13.202;2023-09-19T09:36:12;4.28;;;1.10;;
17038;SDS011;8636;55.750;13.202;2023-09-19T09:38:44;8.90;;;1.42;;
17038;SDS011;8636;55.750;13.202;2023-09-19T09:41:22;4.15;;;1.30;;
17038;SDS011;8636;55.750;13.202;2023-09-19T09:44:11;5.55;;;1.50;;
17038;SDS011;8636;55.750;13.202;2023-09-19T09:46:48;6.53;;;1.60;;
17038;SDS011;8636;55.750;13.202;2023-09-19T09:49:49;5.47;;;1.40;;
17038;SDS011;8636;55.750;13.202;2023-09-19T09:52:46;5.47;;;1.23;;
17038;SDS011;8636;55.750;13.202;2023-09-19T09:55:14;3.08;;;1.50;;
17038;SDS011;8636;55.750;13.202;2023-09-19T09:57:52;5.50;;;1.52;;
17038;SDS011;8636;55.750;13.202;2023-09-19T10:00:52;4.07;;;1.10;;
17038;SDS011;8636;55.750;13.202;2023-09-19T10:03:37;3.42;;;1.40;;
17038;SDS011;8636;55.750;13.202;2023-09-19T10:06:09;4.38;;;1.40;;
17038;SDS011;8636;55.750;13.202;2023-09-19T10:08:58;4.40;;;1.58;;
17038;SDS011;8636;55.750;13.202;2023-09-19T10:11:38;3.60;;;1.23;;
17038;SDS011;8636;55.750;13.202;2023-09-19T10:14:18;5.13;;;1.40;;
17038;SDS011;8636;55.750;13.202;2023-09-19T10:16:50;5.38;;;1.60;;
17038;SDS011;8636;55.750;13.202;2023-09-19T10:19:34;5.82;;;1.50;;
17038;SDS011;8636;55.750;13.202;2023-09-19T10:22:06;6.30;;;1.92;;
17038;SDS011;8636;55.750;13.202;2023-09-19T10:24:42;5.22;;;1.60;;
17038;SDS011;8636;55.750;13.202;2023-09-19T10:27:28;4.85;;;1.40;;
17038;SDS011;8636;55.750;13.202;2023-09-19T10:30:11;5.82;;;1.67;;
17038;SDS011;8636;55.750;13.202;2023-09-19T10:32:39;5.07;;;1.40;;
17038;SDS011;8636;55.750;13.202;2023-09-19T10:35:09;7.20;;;1.52;;
17038;SDS011;8636;55.750;13.202;2023-09-19T10:37:45;8.13;;;1.75;;
17038;SDS011;8636;55.750;13.202;2023-09-19T10:40:18;4.57;;;1.52;;
17038;SDS011;8636;55.750;13.202;2023-09-19T10:42:53;6.18;;;1.38;;
17038;SDS011;8636;55.750;13.202;2023-09-19T10:45:29;5.22;;;1.73;;
17038;SDS011;8636;55.750;13.202;2023-09-19T10:48:05;6.25;;;1.80;;
17038;SDS011;8636;55.750;13.202;2023-09-19T10:50:35;6.43;;;1.50;;
17038;SDS011;8636;55.750;13.202;2023-09-19T10:53:19;5.80;;;1.98;;
17038;SDS011;8636;55.750;13.202;2023-09-19T10:55:49;4.63;;;1.40;;
17038;SDS011;8636;55.750;13.202;2023-09-19T10:58:32;5.80;;;2.10;;
17038;SDS011;8636;55.750;13.202;2023-09-19T11:01:06;5.95;;;1.60;;
17038;SDS011;8636;55.750;13.202;2023-09-19T11:04:20;4.50;;;1.80;;
17038;SDS011;8636;55.750;13.202;2023-09-19T11:06:59;6.60;;;1.73;;
17038;SDS011;8636;55.750;13.202;2023-09-19T11:09:45;6.28;;;1.70;;
17038;SDS011;8636;55.750;13.202;2023-09-19T11:18:53;5.00;;;1.55;;
17038;SDS011;8636;55.750;13.202;2023-09-19T11:21:38;6.20;;;1.73;;
17038;SDS011;8636;55.750;13.202;2023-09-19T11:24:30;7.07;;;1.85;;
17038;SDS011;8636;55.750;13.202;2023-09-19T11:27:09;5.88;;;1.42;;
17038;SDS011;8636;55.750;13.202;2023-09-19T11:29:42;5.07;;;1.40;;
17038;SDS011;8636;55.750;13.202;2023-09-19T11:32:16;8.43;;;1.63;;
17038;SDS011;8636;55.750;13.202;2023-09-19T11:35:09;3.22;;;1.05;;
17038;SDS011;8636;55.750;13.202;2023-09-19T11:40:37;10.75;;;1.55;;
17038;SDS011;8636;55.750;13.202;2023-09-19T11:43:33;10.05;;;1.88;;
17038;SDS011;8636;55.750;13.202;2023-09-19T11:46:08;8.55;;;1.25;;
17038;SDS011;8636;55.750;13.202;2023-09-19T11:48:43;4.43;;;1.25;;
17038;SDS011;8636;55.750;13.202;2023-09-19T11:51:16;6.90;;;1.40;;
17038;SDS011;8636;55.750;13.202;2023-09-19T11:53:59;6.25;;;1.65;;
17038;SDS011;8636;55.750;13.202;2023-09-19T11:56:28;5.00;;;1.52;;
17038;SDS011;8636;55.750;13.202;2023-09-19T11:58:58;5.18;;;1.70;;
17038;SDS011;8636;55.750;13.202;2023-09-19T12:01:33;7.10;;;1.20;;
17038;SDS011;8636;55.750;13.202;2023-09-19T12:04:16;8.27;;;1.33;;
17038;SDS011;8636;55.750;13.202;2023-09-19T12:06:57;4.55;;;1.52;;
17038;SDS011;8636;55.750;13.202;2023-09-19T12:09:25;4.47;;;1.20;;
17038;SDS011;8636;55.750;13.202;2023-09-19T12:12:01;6.70;;;1.67;;
17038;SDS011;8636;55.750;13.202;2023-09-19T12:14:29;6.47;;;1.60;;
17038;SDS011;8636;55.750;13.202;2023-09-19T12:16:59;6.68;;;1.40;;
17038;SDS011;8636;55.750;13.202;2023-09-19T12:19:35;6.40;;;1.75;;
17038;SDS011;8636;55.750;13.202;2023-09-19T12:22:06;7.65;;;1.90;;
17038;SDS011;8636;55.750;13.202;2023-09-19T12:24:35;8.25;;;1.38;;
17038;SDS011;8636;55.750;13.202;2023-09-19T12:27:14;5.60;;;1.70;;
17038;SDS011;8636;55.750;13.202;2023-09-19T12:29:43;8.32;;;1.63;;
17038;SDS011;8636;55.750;13.202;2023-09-19T12:32:12;6.18;;;1.45;;
17038;SDS011;8636;55.750;13.202;2023-09-19T12:34:50;4.93;;;1.70;;
17038;SDS011;8636;55.750;13.202;2023-09-19T12:37:20;6.88;;;1.63;;
17038;SDS011;8636;55.750;13.202;2023-09-19T12:39:50;5.30;;;1.45;;
17038;SDS011;8636;55.750;13.202;2023-09-19T12:42:28;4.93;;;1.58;;
17038;SDS011;8636;55.750;13.202;2023-09-19T12:45:01;7.20;;;1.63;;
17038;SDS011;8636;55.750;13.202;2023-09-19T12:53:36;3.78;;;1.42;;
17038;SDS011;8636;55.750;13.202;2023-09-19T12:56:08;5.55;;;1.45;;
17038;SDS011;8636;55.750;13.202;2023-09-19T12:58:49;5.05;;;1.30;;
17038;SDS011;8636;55.750;13.202;2023-09-19T13:01:20;7.68;;;2.25;;
17038;SDS011;8636;55.750;13.202;2023-09-19T13:04:11;5.78;;;1.77;;
17038;SDS011;8636;55.750;13.202;2023-09-19T13:06:47;6.53;;;2.25;;
17038;SDS011;8636;55.750;13.202;2023-09-19T13:09:24;7.65;;;2.22;;
17038;SDS011;8636;55.750;13.202;2023-09-19T13:11:58;9.80;;;1.98;;
17038;SDS011;8636;55.750;13.202;2023-09-19T13:14:34;11.02;;;2.30;;
17038;SDS011;8636;55.750;13.202;2023-09-19T13:17:07;8.05;;;2.20;;
17038;SDS011;8636;55.750;13.202;2023-09-19T13:19:49;4.68;;;1.63;;
17038;SDS011;8636;55.750;13.202;2023-09-19T13:22:37;7.45;;;2.00;;
17038;SDS011;8636;55.750;13.202;2023-09-19T13:25:14;7.35;;;2.83;;
17038;SDS011;8636;55.750;13.202;2023-09-19T13:27:45;6.82;;;2.65;;
17038;SDS011;8636;55.750;13.202;2023-09-19T13:30:24;4.60;;;2.22;;
17038;SDS011;8636;55.750;13.202;2023-09-19T13:33:03;6.65;;;2.30;;
17038;SDS011;8636;55.750;13.202;2023-09-19T13:35:40;7.13;;;2.13;;
17038;SDS011;8636;55.750;13.202;2023-09-19T13:38:08;6.70;;;2.03;;
17038;SDS011;8636;55.750;13.202;2023-09-19T13:40:40;4.30;;;1.67;;
17038;SDS011;8636;55.750;13.202;2023-09-19T13:43:16;7.45;;;2.00;;
17038;SDS011;8636;55.750;13.202;2023-09-19T13:45:43;9.52;;;2.42;;
17038;SDS011;8636;55.750;13.202;2023-09-19T13:48:11;7.20;;;2.00;;
17038;SDS011;8636;55.750;13.202;2023-09-19T13:50:45;7.80;;;2.80;;
17038;SDS011;8636;55.750;13.202;2023-09-19T13:53:14;5.80;;;2.25;;
17038;SDS011;8636;55.750;13.202;2023-09-19T13:55:44;6.65;;;2.10;;
17038;SDS011;8636;55.750;13.202;2023-09-19T13:58:20;8.50;;;3.08;;
17038;SDS011;8636;55.750;13.202;2023-09-19T14:00:53;5.75;;;2.10;;
17038;SDS011;8636;55.750;13.202;2023-09-19T14:03:31;4.18;;;1.85;;
17038;SDS011;8636;55.750;13.202;2023-09-19T14:06:05;4.78;;;1.60;;
17038;SDS011;8636;55.750;13.202;2023-09-19T14:08:47;8.15;;;2.50;;
17038;SDS011;8636;55.750;13.202;2023-09-19T14:11:23;8.02;;;2.10;;
17038;SDS011;8636;55.750;13.202;2023-09-19T14:13:58;8.02;;;2.33;;
17038;SDS011;8636;55.750;13.202;2023-09-19T14:16:26;8.02;;;2.33;;
17038;SDS011;8636;55.750;13.202;2023-09-19T14:18:57;6.38;;;2.50;;
17038;SDS011;8636;55.750;13.202;2023-09-19T14:21:32;8.02;;;2.88;;
17038;SDS011;8636;55.750;13.202;2023-09-19T14:23:59;7.25;;;2.80;;
17038;SDS011;8636;55.750;13.202;2023-09-19T14:26:29;9.75;;;2.58;;
17038;SDS011;8636;55.750;13.202;2023-09-19T14:29:02;9.77;;;2.78;;
17038;SDS011;8636;55.750;13.202;2023-09-19T14:31:31;5.97;;;1.63;;
17038;SDS011;8636;55.750;13.202;2023-09-19T14:33:59;6.32;;;2.20;;
17038;SDS011;8636;55.750;13.202;2023-09-19T14:36:34;9.35;;;2.40;;
17038;SDS011;8636;55.750;13.202;2023-09-19T14:39:02;7.32;;;2.20;;
17038;SDS011;8636;55.750;13.202;2023-09-19T14:41:32;6.72;;;2.25;;
17038;SDS011;8636;55.750;13.202;2023-09-19T14:44:06;8.27;;;2.17;;
17038;SDS011;8636;55.750;13.202;2023-09-19T14:46:36;8.02;;;2.35;;
17038;SDS011;8636;55.750;13.202;2023-09-19T14:49:04;8.70;;;2.22;;
17038;SDS011;8636;55.750;13.202;2023-09-19T14:51:40;9.40;;;2.83;;
17038;SDS011;8636;55.750;13.202;2023-09-19T14:54:10;5.90;;;2.47;;
17038;SDS011;8636;55.750;13.202;2023-09-19T14:56:39;10.95;;;3.13;;
17038;SDS011;8636;55.750;13.202;2023-09-19T14:59:13;8.82;;;2.83;;
17038;SDS011;8636;55.750;13.202;2023-09-19T15:01:48;11.23;;;2.58;;
17038;SDS011;8636;55.750;13.202;2023-09-19T15:04:30;7.35;;;2.53;;
17038;SDS011;8636;55.750;13.202;2023-09-19T15:06:58;4.80;;;2.05;;
17038;SDS011;8636;55.750;13.202;2023-09-19T15:09:26;8.85;;;2.30;;
17038;SDS011;8636;55.750;13.202;2023-09-19T15:12:03;7.25;;;2.67;;
17038;SDS011;8636;55.750;13.202;2023-09-19T15:14:32;9.95;;;2.70;;
17038;SDS011;8636;55.750;13.202;2023-09-19T15:17:00;6.53;;;2.50;;
17038;SDS011;8636;55.750;13.202;2023-09-19T15:19:37;8.30;;;2.22;;
17038;SDS011;8636;55.750;13.202;2023-09-19T15:22:05;10.10;;;1.95;;
17038;SDS011;8636;55.750;13.202;2023-09-19T15:24:33;11.30;;;2.63;;
17038;SDS011;8636;55.750;13.202;2023-09-19T15:27:09;5.20;;;2.08;;
17038;SDS011;8636;55.750;13.202;2023-09-19T15:29:37;9.68;;;2.47;;
17038;SDS011;8636;55.750;13.202;2023-09-19T15:32:05;6.28;;;2.17;;
17038;SDS011;8636;55.750;13.202;2023-09-19T15:34:40;5.60;;;2.17;;
17038;SDS011;8636;55.750;13.202;2023-09-19T15:37:08;7.88;;;1.60;;
17038;SDS011;8636;55.750;13.202;2023-09-19T15:39:35;9.02;;;2.15;;
17038;SDS011;8636;55.750;13.202;2023-09-19T15:42:12;6.10;;;1.98;;